sensor_id;sensor_type;location;lat;lon;timestamp;pressure;altitude;pressure_sealevel;temperature;humidity
32033;BME280;31720;52.638;9.216;2024-03-25T00:00:39;99979.28;;;5.97;100.00
32033;BME280;31720;52.638;9.216;2024-03-25T00:03:39;99980.75;;;6.02;100.00
32033;BME280;31720;52.638;9.216;2024-03-25T00:06:40;99992.09;;;6.01;100.00
32033;BME280;31720;52.638;9.216;2024-03-25T00:09:42;99993.28;;;6.13;100.00
32033;BME280;31720;52.638;9.216;2024-03-25T00:12:44;99997.66;;;6.13;100.00
32033;BME280;31720;52.638;9.216;2024-03-25T00:15:44;100010.63;;;6.14;100.00
32033;BME280;31720;52.638;9.216;2024-03-25T00:18:45;100005.00;;;6.04;100.00
32033;BME280;31720;52.638;9.216;2024-03-25T00:21:46;100010.63;;;6.14;100.00
32033;BME280;31720;52.638;9.216;2024-03-25T00:24:48;100019.44;;;6.12;100.00
32033;BME280;31720;52.638;9.216;2024-03-25T00:27:49;100021.78;;;6.18;100.00
32033;BME280;31720;52.638;9.216;2024-03-25T00:30:50;100029.53;;;6.19;100.00
32033;BME280;31720;52.638;9.216;2024-03-25T00:33:51;100023.47;;;6.19;100.00
32033;BME280;31720;52.638;9.216;2024-03-25T00:36:52;100020.78;;;6.20;100.00
32033;BME280;31720;52.638;9.216;2024-03-25T00:39:55;100031.72;;;6.09;100.00
32033;BME280;31720;52.638;9.216;2024-03-25T00:42:55;100036.28;;;6.23;100.00
32033;BME280;31720;52.638;9.216;2024-03-25T00:45:57;100035.59;;;6.20;100.00
32033;BME280;31720;52.638;9.216;2024-03-25T00:48:57;100031.50;;;6.14;100.00
32033;BME280;31720;52.638;9.216;2024-03-25T00:51:59;100040.81;;;6.20;100.00
32033;BME280;31720;52.638;9.216;2024-03-25T00:55:00;100042.28;;;6.25;100.00
32033;BME280;31720;52.638;9.216;2024-03-25T00:58:02;100049.38;;;6.22;100.00
32033;BME280;31720;52.638;9.216;2024-03-25T01:01:04;100051.09;;;6.23;100.00
32033;BME280;31720;52.638;9.216;2024-03-25T01:04:05;100047.44;;;6.27;100.00
32033;BME280;31720;52.638;9.216;2024-03-25T01:07:05;100045.72;;;6.26;100.00
32033;BME280;31720;52.638;9.216;2024-03-25T01:10:08;100063.63;;;6.33;100.00
32033;BME280;31720;52.638;9.216;2024-03-25T01:13:10;100048.69;;;6.37;100.00
32033;BME280;31720;52.638;9.216;2024-03-25T01:16:10;100060.28;;;6.31;100.00
32033;BME280;31720;52.638;9.216;2024-03-25T01:19:11;100058.44;;;6.15;100.00
32033;BME280;31720;52.638;9.216;2024-03-25T01:22:12;100053.91;;;5.99;100.00
32033;BME280;31720;52.638;9.216;2024-03-25T01:25:15;100049.78;;;5.95;100.00
32033;BME280;31720;52.638;9.216;2024-03-25T01:28:15;100056.25;;;5.85;100.00
32033;BME280;31720;52.638;9.216;2024-03-25T01:31:17;100053.31;;;5.74;100.00
32033;BME280;31720;52.638;9.216;2024-03-25T01:34:17;100058.59;;;5.72;100.00
32033;BME280;31720;52.638;9.216;2024-03-25T01:37:18;100056.97;;;5.70;100.00
32033;BME280;31720;52.638;9.216;2024-03-25T01:40:20;100055.47;;;5.64;100.00
32033;BME280;31720;52.638;9.216;2024-03-25T01:43:21;100064.38;;;5.58;100.00
32033;BME280;31720;52.638;9.216;2024-03-25T01:46:22;100061.00;;;5.56;100.00
32033;BME280;31720;52.638;9.216;2024-03-25T01:49:24;100056.78;;;5.54;100.00
32033;BME280;31720;52.638;9.216;2024-03-25T01:52:25;100063.69;;;5.55;100.00
32033;BME280;31720;52.638;9.216;2024-03-25T01:55:29;100068.19;;;5.51;100.00
32033;BME280;31720;52.638;9.216;2024-03-25T01:58:31;100059.78;;;5.45;100.00
32033;BME280;31720;52.638;9.216;2024-03-25T02:01:32;100056.72;;;5.55;100.00
32033;BME280;31720;52.638;9.216;2024-03-25T02:04:32;100071.72;;;5.50;100.00
32033;BME280;31720;52.638;9.216;2024-03-25T02:07:35;100067.28;;;5.52;100.00
32033;BME280;31720;52.638;9.216;2024-03-25T02:10:38;100075.94;;;5.53;100.00
32033;BME280;31720;52.638;9.216;2024-03-25T02:13:40;100081.03;;;5.56;100.00
32033;BME280;31720;52.638;9.216;2024-03-25T02:16:40;100076.78;;;5.53;100.00
32033;BME280;31720;52.638;9.216;2024-03-25T02:19:41;100084.03;;;5.47;100.00
32033;BME280;31720;52.638;9.216;2024-03-25T02:22:42;100092.69;;;5.47;100.00
32033;BME280;31720;52.638;9.216;2024-03-25T02:25:49;100091.63;;;5.51;100.00
32033;BME280;31720;52.638;9.216;2024-03-25T02:28:50;100092.41;;;5.53;100.00
32033;BME280;31720;52.638;9.216;2024-03-25T02:31:51;100093.66;;;5.65;100.00
32033;BME280;31720;52.638;9.216;2024-03-25T02:34:54;100096.38;;;5.62;100.00
32033;BME280;31720;52.638;9.216;2024-03-25T02:37:55;100099.19;;;5.57;100.00
32033;BME280;31720;52.638;9.216;2024-03-25T02:40:57;100102.91;;;5.52;100.00
32033;BME280;31720;52.638;9.216;2024-03-25T02:43:58;100104.88;;;5.47;100.00
32033;BME280;31720;52.638;9.216;2024-03-25T02:47:01;100105.50;;;5.52;100.00
32033;BME280;31720;52.638;9.216;2024-03-25T02:50:01;100113.22;;;5.55;100.00
32033;BME280;31720;52.638;9.216;2024-03-25T02:53:03;100118.28;;;5.58;100.00
32033;BME280;31720;52.638;9.216;2024-03-25T02:56:05;100123.03;;;5.69;100.00
32033;BME280;31720;52.638;9.216;2024-03-25T02:59:06;100118.59;;;5.71;100.00
32033;BME280;31720;52.638;9.216;2024-03-25T03:02:07;100117.88;;;5.67;100.00
32033;BME280;31720;52.638;9.216;2024-03-25T03:05:08;100126.50;;;5.69;100.00
32033;BME280;31720;52.638;9.216;2024-03-25T03:08:09;100133.72;;;5.63;100.00
32033;BME280;31720;52.638;9.216;2024-03-25T03:11:11;100136.00;;;5.70;100.00
32033;BME280;31720;52.638;9.216;2024-03-25T03:14:12;100138.50;;;5.73;100.00
32033;BME280;31720;52.638;9.216;2024-03-25T03:17:13;100140.38;;;5.70;100.00
32033;BME280;31720;52.638;9.216;2024-03-25T03:20:14;100141.09;;;5.73;100.00
32033;BME280;31720;52.638;9.216;2024-03-25T03:23:15;100144.88;;;5.66;100.00
32033;BME280;31720;52.638;9.216;2024-03-25T03:26:17;100148.47;;;5.64;100.00
32033;BME280;31720;52.638;9.216;2024-03-25T03:29:19;100155.16;;;5.69;100.00
32033;BME280;31720;52.638;9.216;2024-03-25T03:32:20;100151.25;;;5.59;100.00
32033;BME280;31720;52.638;9.216;2024-03-25T03:35:21;100157.06;;;5.66;100.00
32033;BME280;31720;52.638;9.216;2024-03-25T03:38:22;100156.28;;;5.64;100.00
32033;BME280;31720;52.638;9.216;2024-03-25T03:41:24;100160.63;;;5.63;100.00
32033;BME280;31720;52.638;9.216;2024-03-25T03:44:25;100161.69;;;5.59;100.00
32033;BME280;31720;52.638;9.216;2024-03-25T03:47:26;100169.50;;;5.59;100.00
32033;BME280;31720;52.638;9.216;2024-03-25T03:50:27;100169.16;;;5.67;100.00
32033;BME280;31720;52.638;9.216;2024-03-25T03:53:28;100163.09;;;5.66;100.00
32033;BME280;31720;52.638;9.216;2024-03-25T03:56:31;100166.56;;;5.67;100.00
32033;BME280;31720;52.638;9.216;2024-03-25T03:59:32;100167.78;;;5.58;100.00
32033;BME280;31720;52.638;9.216;2024-03-25T04:02:32;100169.56;;;5.57;100.00
32033;BME280;31720;52.638;9.216;2024-03-25T04:05:34;100166.19;;;5.55;100.00
32033;BME280;31720;52.638;9.216;2024-03-25T04:08:34;100173.28;;;5.52;100.00
32033;BME280;31720;52.638;9.216;2024-03-25T04:11:37;100168.97;;;5.51;100.00
32033;BME280;31720;52.638;9.216;2024-03-25T04:14:37;100171.50;;;5.52;100.00
32033;BME280;31720;52.638;9.216;2024-03-25T04:17:39;100177.72;;;5.50;100.00
32033;BME280;31720;52.638;9.216;2024-03-25T04:20:40;100180.44;;;5.47;100.00
32033;BME280;31720;52.638;9.216;2024-03-25T04:23:42;100184.66;;;5.49;100.00
32033;BME280;31720;52.638;9.216;2024-03-25T04:26:46;100180.06;;;5.56;100.00
32033;BME280;31720;52.638;9.216;2024-03-25T04:29:46;100179.97;;;5.57;100.00
32033;BME280;31720;52.638;9.216;2024-03-25T04:32:48;100185.47;;;5.51;100.00
32033;BME280;31720;52.638;9.216;2024-03-25T04:35:48;100190.59;;;5.53;100.00
32033;BME280;31720;52.638;9.216;2024-03-25T04:38:49;100189.81;;;5.51;100.00
32033;BME280;31720;52.638;9.216;2024-03-25T04:41:51;100196.84;;;5.49;100.00
32033;BME280;31720;52.638;9.216;2024-03-25T04:44:52;100199.53;;;5.47;100.00
32033;BME280;31720;52.638;9.216;2024-03-25T04:47:52;100201.09;;;5.51;100.00
32033;BME280;31720;52.638;9.216;2024-03-25T04:50:53;100210.13;;;5.43;100.00
32033;BME280;31720;52.638;9.216;2024-03-25T04:53:53;100209.19;;;5.45;100.00
32033;BME280;31720;52.638;9.216;2024-03-25T04:56:55;100203.81;;;5.48;100.00
32033;BME280;31720;52.638;9.216;2024-03-25T04:59:55;100202.00;;;5.50;100.00
32033;BME280;31720;52.638;9.216;2024-03-25T05:02:56;100207.16;;;5.52;100.00
32033;BME280;31720;52.638;9.216;2024-03-25T05:05:56;100208.13;;;5.49;100.00
32033;BME280;31720;52.638;9.216;2024-03-25T05:08:57;100211.59;;;5.50;100.00
32033;BME280;31720;52.638;9.216;2024-03-25T05:11:59;100216.19;;;5.43;100.00
32033;BME280;31720;52.638;9.216;2024-03-25T05:14:59;100221.41;;;5.43;100.00
32033;BME280;31720;52.638;9.216;2024-03-25T05:17:59;100221.94;;;5.51;100.00
32033;BME280;31720;52.638;9.216;2024-03-25T05:21:00;100221.28;;;5.46;100.00
32033;BME280;31720;52.638;9.216;2024-03-25T05:24:00;100222.72;;;5.53;100.00
32033;BME280;31720;52.638;9.216;2024-03-25T05:27:02;100229.31;;;5.62;100.00
32033;BME280;31720;52.638;9.216;2024-03-25T05:30:03;100237.97;;;5.63;100.00
32033;BME280;31720;52.638;9.216;2024-03-25T05:33:04;100240.41;;;5.67;100.00
32033;BME280;31720;52.638;9.216;2024-03-25T05:36:05;100242.16;;;5.67;100.00
32033;BME280;31720;52.638;9.216;2024-03-25T05:39:06;100233.31;;;5.71;100.00
32033;BME280;31720;52.638;9.216;2024-03-25T05:42:07;100234.16;;;5.71;100.00
32033;BME280;31720;52.638;9.216;2024-03-25T05:45:08;100244.75;;;5.67;100.00
32033;BME280;31720;52.638;9.216;2024-03-25T05:48:09;100244.66;;;5.70;100.00
32033;BME280;31720;52.638;9.216;2024-03-25T05:51:09;100248.22;;;5.67;100.00
32033;BME280;31720;52.638;9.216;2024-03-25T05:54:09;100256.56;;;5.75;100.00
32033;BME280;31720;52.638;9.216;2024-03-25T05:57:11;100259.31;;;5.72;100.00
32033;BME280;31720;52.638;9.216;2024-03-25T06:00:12;100258.88;;;5.83;100.00
32033;BME280;31720;52.638;9.216;2024-03-25T06:03:14;100255.53;;;5.79;100.00
32033;BME280;31720;52.638;9.216;2024-03-25T06:06:14;100264.75;;;5.88;100.00
32033;BME280;31720;52.638;9.216;2024-03-25T06:09:15;100257.59;;;5.93;100.00
32033;BME280;31720;52.638;9.216;2024-03-25T06:12:17;100256.78;;;5.91;100.00
32033;BME280;31720;52.638;9.216;2024-03-25T06:15:17;100259.41;;;5.91;100.00
32033;BME280;31720;52.638;9.216;2024-03-25T06:18:18;100270.63;;;5.93;100.00
32033;BME280;31720;52.638;9.216;2024-03-25T06:21:18;100271.28;;;5.98;100.00
32033;BME280;31720;52.638;9.216;2024-03-25T06:24:18;100282.34;;;6.05;100.00
32033;BME280;31720;52.638;9.216;2024-03-25T06:27:20;100274.69;;;6.00;100.00
32033;BME280;31720;52.638;9.216;2024-03-25T06:30:21;100280.59;;;6.04;100.00
32033;BME280;31720;52.638;9.216;2024-03-25T06:33:40;100278.72;;;6.07;100.00
32033;BME280;31720;52.638;9.216;2024-03-25T06:36:59;100286.94;;;5.98;100.00
32033;BME280;31720;52.638;9.216;2024-03-25T06:40:00;100290.00;;;6.08;100.00
32033;BME280;31720;52.638;9.216;2024-03-25T06:43:01;100287.09;;;6.16;100.00
32033;BME280;31720;52.638;9.216;2024-03-25T06:46:02;100285.44;;;6.13;100.00
32033;BME280;31720;52.638;9.216;2024-03-25T06:49:03;100296.75;;;6.14;100.00
32033;BME280;31720;52.638;9.216;2024-03-25T06:52:03;100292.56;;;6.09;100.00
32033;BME280;31720;52.638;9.216;2024-03-25T06:55:04;100303.66;;;6.15;100.00
32033;BME280;31720;52.638;9.216;2024-03-25T06:58:06;100301.09;;;6.13;100.00
32033;BME280;31720;52.638;9.216;2024-03-25T07:01:08;100304.22;;;6.21;100.00
32033;BME280;31720;52.638;9.216;2024-03-25T07:04:08;100308.69;;;6.19;100.00
32033;BME280;31720;52.638;9.216;2024-03-25T07:07:09;100320.81;;;6.20;100.00
32033;BME280;31720;52.638;9.216;2024-03-25T07:10:09;100314.66;;;6.21;100.00
32033;BME280;31720;52.638;9.216;2024-03-25T07:13:11;100309.13;;;6.29;100.00
32033;BME280;31720;52.638;9.216;2024-03-25T07:16:12;100311.47;;;6.35;100.00
32033;BME280;31720;52.638;9.216;2024-03-25T07:19:12;100306.00;;;6.41;100.00
32033;BME280;31720;52.638;9.216;2024-03-25T07:22:13;100313.56;;;6.47;100.00
32033;BME280;31720;52.638;9.216;2024-03-25T07:25:13;100318.06;;;6.64;100.00
32033;BME280;31720;52.638;9.216;2024-03-25T07:28:15;100318.63;;;6.71;100.00
32033;BME280;31720;52.638;9.216;2024-03-25T07:31:16;100325.59;;;6.70;100.00
32033;BME280;31720;52.638;9.216;2024-03-25T07:34:16;100331.63;;;6.72;100.00
32033;BME280;31720;52.638;9.216;2024-03-25T07:37:17;100338.53;;;6.73;100.00
32033;BME280;31720;52.638;9.216;2024-03-25T07:40:17;100345.38;;;6.76;100.00
32033;BME280;31720;52.638;9.216;2024-03-25T07:43:19;100338.97;;;6.83;100.00
32033;BME280;31720;52.638;9.216;2024-03-25T07:46:20;100342.56;;;6.80;100.00
32033;BME280;31720;52.638;9.216;2024-03-25T07:49:20;100341.78;;;6.78;100.00
32033;BME280;31720;52.638;9.216;2024-03-25T07:52:21;100345.56;;;6.92;100.00
32033;BME280;31720;52.638;9.216;2024-03-25T07:55:21;100352.25;;;6.97;100.00
32033;BME280;31720;52.638;9.216;2024-03-25T07:58:23;100355.44;;;7.04;100.00
32033;BME280;31720;52.638;9.216;2024-03-25T08:01:24;100349.31;;;7.05;100.00
32033;BME280;31720;52.638;9.216;2024-03-25T08:04:25;100350.72;;;7.12;100.00
32033;BME280;31720;52.638;9.216;2024-03-25T08:07:25;100354.41;;;7.27;100.00
32033;BME280;31720;52.638;9.216;2024-03-25T08:10:26;100351.31;;;7.19;100.00
32033;BME280;31720;52.638;9.216;2024-03-25T08:13:27;100360.19;;;7.33;100.00
32033;BME280;31720;52.638;9.216;2024-03-25T08:16:28;100372.28;;;7.36;100.00
32033;BME280;31720;52.638;9.216;2024-03-25T08:19:29;100368.97;;;7.32;100.00
32033;BME280;31720;52.638;9.216;2024-03-25T08:22:29;100367.69;;;7.41;100.00
32033;BME280;31720;52.638;9.216;2024-03-25T08:25:29;100360.25;;;7.51;100.00
32033;BME280;31720;52.638;9.216;2024-03-25T08:28:31;100370.94;;;7.46;100.00
32033;BME280;31720;52.638;9.216;2024-03-25T08:31:32;100364.28;;;7.58;100.00
32033;BME280;31720;52.638;9.216;2024-03-25T08:34:32;100367.94;;;7.54;100.00
32033;BME280;31720;52.638;9.216;2024-03-25T08:37:33;100364.84;;;7.65;100.00
32033;BME280;31720;52.638;9.216;2024-03-25T08:40:33;100375.94;;;7.51;100.00
32033;BME280;31720;52.638;9.216;2024-03-25T08:43:35;100371.78;;;7.47;100.00
32033;BME280;31720;52.638;9.216;2024-03-25T08:46:36;100364.44;;;7.36;100.00
32033;BME280;31720;52.638;9.216;2024-03-25T08:49:37;100369.94;;;7.49;100.00
32033;BME280;31720;52.638;9.216;2024-03-25T08:52:37;100370.44;;;7.57;100.00
32033;BME280;31720;52.638;9.216;2024-03-25T08:55:38;100374.47;;;7.64;100.00
32033;BME280;31720;52.638;9.216;2024-03-25T08:58:39;100376.41;;;7.78;100.00
32033;BME280;31720;52.638;9.216;2024-03-25T09:01:40;100371.00;;;7.63;100.00
32033;BME280;31720;52.638;9.216;2024-03-25T09:04:40;100370.44;;;7.57;100.00
32033;BME280;31720;52.638;9.216;2024-03-25T09:07:41;100374.03;;;7.73;100.00
32033;BME280;31720;52.638;9.216;2024-03-25T09:10:43;100375.91;;;7.88;100.00
32033;BME280;31720;52.638;9.216;2024-03-25T09:14:03;100381.56;;;8.16;100.00
32033;BME280;31720;52.638;9.216;2024-03-25T09:17:04;100385.25;;;8.11;100.00
32033;BME280;31720;52.638;9.216;2024-03-25T09:20:05;100379.97;;;8.13;100.00
32033;BME280;31720;52.638;9.216;2024-03-25T09:23:06;100385.25;;;8.11;100.00
32033;BME280;31720;52.638;9.216;2024-03-25T09:26:06;100384.75;;;8.22;100.00
32033;BME280;31720;52.638;9.216;2024-03-25T09:29:08;100384.34;;;8.30;100.00
32033;BME280;31720;52.638;9.216;2024-03-25T09:32:09;100387.72;;;8.14;100.00
32033;BME280;31720;52.638;9.216;2024-03-25T09:35:09;100390.53;;;7.93;100.00
32033;BME280;31720;52.638;9.216;2024-03-25T09:38:10;100390.38;;;7.96;100.00
32033;BME280;31720;52.638;9.216;2024-03-25T09:41:10;100387.47;;;8.02;100.00
32033;BME280;31720;52.638;9.216;2024-03-25T09:44:12;100386.88;;;8.14;100.00
32033;BME280;31720;52.638;9.216;2024-03-25T09:47:13;100394.28;;;8.23;100.00
32033;BME280;31720;52.638;9.216;2024-03-25T09:50:14;100396.34;;;8.17;100.00
32033;BME280;31720;52.638;9.216;2024-03-25T09:53:15;100398.41;;;8.10;100.00
32033;BME280;31720;52.638;9.216;2024-03-25T09:56:16;100397.50;;;8.11;100.00
32033;BME280;31720;52.638;9.216;2024-03-25T09:59:18;100409.59;;;8.13;100.00
32033;BME280;31720;52.638;9.216;2024-03-25T10:02:19;100410.59;;;8.28;100.00
32033;BME280;31720;52.638;9.216;2024-03-25T10:05:20;100410.03;;;8.41;100.00
32033;BME280;31720;52.638;9.216;2024-03-25T10:08:20;100410.78;;;8.43;100.00
32033;BME280;31720;52.638;9.216;2024-03-25T10:11:21;100400.19;;;8.63;100.00
32033;BME280;31720;52.638;9.216;2024-03-25T10:14:23;100398.84;;;8.72;100.00
32033;BME280;31720;52.638;9.216;2024-03-25T10:17:23;100400.56;;;8.73;100.00
32033;BME280;31720;52.638;9.216;2024-03-25T10:20:24;100395.06;;;8.77;91.51
32033;BME280;31720;52.638;9.216;2024-03-25T10:23:25;100396.16;;;8.73;87.50
32033;BME280;31720;52.638;9.216;2024-03-25T10:26:26;100395.84;;;8.62;82.80
32033;BME280;31720;52.638;9.216;2024-03-25T10:29:28;100390.31;;;8.68;95.06
32033;BME280;31720;52.638;9.216;2024-03-25T10:32:29;100389.16;;;8.56;100.00
32033;BME280;31720;52.638;9.216;2024-03-25T10:35:31;100396.16;;;8.73;100.00
32033;BME280;31720;52.638;9.216;2024-03-25T10:38:32;100392.38;;;8.61;100.00
32033;BME280;31720;52.638;9.216;2024-03-25T10:41:34;100400.25;;;8.61;100.00
32033;BME280;31720;52.638;9.216;2024-03-25T10:44:37;100392.31;;;8.63;99.21
32033;BME280;31720;52.638;9.216;2024-03-25T10:47:38;100390.38;;;8.49;100.00
32033;BME280;31720;52.638;9.216;2024-03-25T10:50:39;100393.31;;;8.60;99.16
32033;BME280;31720;52.638;9.216;2024-03-25T10:53:41;100402.19;;;8.41;100.00
32033;BME280;31720;52.638;9.216;2024-03-25T10:56:44;100399.16;;;8.66;100.00
32033;BME280;31720;52.638;9.216;2024-03-25T10:59:46;100404.38;;;8.83;100.00
32033;BME280;31720;52.638;9.216;2024-03-25T11:02:48;100396.91;;;8.93;99.90
32033;BME280;31720;52.638;9.216;2024-03-25T11:05:49;100390.19;;;9.04;100.00
32033;BME280;31720;52.638;9.216;2024-03-25T11:08:55;100390.53;;;9.14;96.34
32033;BME280;31720;52.638;9.216;2024-03-25T11:11:58;100384.47;;;9.29;95.67
32033;BME280;31720;52.638;9.216;2024-03-25T11:15:02;100380.50;;;9.22;94.90
32033;BME280;31720;52.638;9.216;2024-03-25T11:18:04;100387.31;;;9.25;96.19
32033;BME280;31720;52.638;9.216;2024-03-25T11:21:07;100375.25;;;9.38;100.00
32033;BME280;31720;52.638;9.216;2024-03-25T11:24:08;100372.88;;;9.33;97.83
32033;BME280;31720;52.638;9.216;2024-03-25T11:27:09;100373.22;;;9.43;94.89
32033;BME280;31720;52.638;9.216;2024-03-25T11:30:11;100370.19;;;9.82;95.73
32033;BME280;31720;52.638;9.216;2024-03-25T11:33:12;100369.81;;;9.88;90.35
32033;BME280;31720;52.638;9.216;2024-03-25T11:36:13;100366.44;;;9.71;91.26
32033;BME280;31720;52.638;9.216;2024-03-25T11:39:13;100360.69;;;9.80;91.41
32033;BME280;31720;52.638;9.216;2024-03-25T11:42:14;100360.22;;;10.03;92.42
32033;BME280;31720;52.638;9.216;2024-03-25T11:45:17;100354.34;;;9.84;87.48
32033;BME280;31720;52.638;9.216;2024-03-25T11:48:18;100353.13;;;9.89;85.35
32033;BME280;31720;52.638;9.216;2024-03-25T11:51:19;100345.09;;;9.93;87.16
32033;BME280;31720;52.638;9.216;2024-03-25T11:54:19;100342.72;;;9.88;89.04
32033;BME280;31720;52.638;9.216;2024-03-25T11:57:20;100353.41;;;9.85;88.93
32033;BME280;31720;52.638;9.216;2024-03-25T12:00:24;100353.13;;;10.05;83.62
32033;BME280;31720;52.638;9.216;2024-03-25T12:03:25;100347.78;;;10.07;87.27
32033;BME280;31720;52.638;9.216;2024-03-25T12:06:25;100348.72;;;10.06;85.25
32033;BME280;31720;52.638;9.216;2024-03-25T12:09:25;100340.06;;;10.64;83.61
32033;BME280;31720;52.638;9.216;2024-03-25T12:12:44;100335.75;;;10.77;81.47
32033;BME280;31720;52.638;9.216;2024-03-25T12:15:47;100331.81;;;10.84;76.89
32033;BME280;31720;52.638;9.216;2024-03-25T12:18:47;100331.34;;;10.63;78.47
32033;BME280;31720;52.638;9.216;2024-03-25T12:21:48;100319.38;;;10.44;78.41
32033;BME280;31720;52.638;9.216;2024-03-25T12:24:48;100319.03;;;10.50;78.93
32033;BME280;31720;52.638;9.216;2024-03-25T12:27:49;100322.25;;;10.25;74.37
32033;BME280;31720;52.638;9.216;2024-03-25T12:30:52;100315.88;;;10.29;77.66
32033;BME280;31720;52.638;9.216;2024-03-25T12:33:52;100301.94;;;10.43;77.46
32033;BME280;31720;52.638;9.216;2024-03-25T12:37:00;100306.75;;;10.64;81.45
32033;BME280;31720;52.638;9.216;2024-03-25T12:40:01;100301.13;;;10.99;78.43
32033;BME280;31720;52.638;9.216;2024-03-25T12:43:01;100295.97;;;10.55;75.15
32033;BME280;31720;52.638;9.216;2024-03-25T12:46:03;100299.59;;;10.38;77.33
32033;BME280;31720;52.638;9.216;2024-03-25T12:49:04;100300.97;;;10.29;78.57
32033;BME280;31720;52.638;9.216;2024-03-25T12:52:05;100290.13;;;10.20;75.64
32033;BME280;31720;52.638;9.216;2024-03-25T12:55:06;100292.16;;;10.00;76.61
32033;BME280;31720;52.638;9.216;2024-03-25T12:58:07;100292.47;;;10.10;78.63
32033;BME280;31720;52.638;9.216;2024-03-25T13:01:08;100282.53;;;10.59;87.25
32033;BME280;31720;52.638;9.216;2024-03-25T13:04:09;100283.16;;;11.47;82.89
32033;BME280;31720;52.638;9.216;2024-03-25T13:07:09;100275.22;;;11.88;77.47
32033;BME280;31720;52.638;9.216;2024-03-25T13:10:10;100275.91;;;11.51;73.70
32033;BME280;31720;52.638;9.216;2024-03-25T13:13:11;100278.81;;;11.19;73.75
32033;BME280;31720;52.638;9.216;2024-03-25T13:16:13;100278.22;;;10.73;74.91
32033;BME280;31720;52.638;9.216;2024-03-25T13:19:13;100279.06;;;10.45;76.84
32033;BME280;31720;52.638;9.216;2024-03-25T13:22:13;100274.53;;;10.32;74.46
32033;BME280;31720;52.638;9.216;2024-03-25T13:25:14;100270.41;;;10.57;70.47
32033;BME280;31720;52.638;9.216;2024-03-25T13:28:15;100267.78;;;10.43;71.32
32033;BME280;31720;52.638;9.216;2024-03-25T13:31:17;100256.06;;;10.48;69.74
32033;BME280;31720;52.638;9.216;2024-03-25T13:34:17;100256.81;;;10.50;71.84
32033;BME280;31720;52.638;9.216;2024-03-25T13:37:18;100269.84;;;10.66;76.19
32033;BME280;31720;52.638;9.216;2024-03-25T13:40:18;100260.31;;;11.21;73.40
32033;BME280;31720;52.638;9.216;2024-03-25T13:43:19;100263.66;;;11.91;71.82
32033;BME280;31720;52.638;9.216;2024-03-25T13:46:20;100248.19;;;12.63;65.18
32033;BME280;31720;52.638;9.216;2024-03-25T13:49:21;100247.84;;;13.17;60.71
32033;BME280;31720;52.638;9.216;2024-03-25T13:52:22;100249.88;;;13.13;59.23
32033;BME280;31720;52.638;9.216;2024-03-25T13:55:22;100259.50;;;13.02;59.02
32033;BME280;31720;52.638;9.216;2024-03-25T13:58:23;100244.97;;;12.96;57.46
32033;BME280;31720;52.638;9.216;2024-03-25T14:01:25;100241.41;;;12.84;59.24
32033;BME280;31720;52.638;9.216;2024-03-25T14:04:25;100246.28;;;13.14;58.75
32033;BME280;31720;52.638;9.216;2024-03-25T14:07:26;100240.53;;;12.97;58.58
32033;BME280;31720;52.638;9.216;2024-03-25T14:10:26;100240.09;;;12.40;59.70
32033;BME280;31720;52.638;9.216;2024-03-25T14:13:27;100242.63;;;12.04;62.06
32033;BME280;31720;52.638;9.216;2024-03-25T14:16:29;100247.44;;;11.97;62.98
32033;BME280;31720;52.638;9.216;2024-03-25T14:19:29;100241.66;;;12.56;64.08
32033;BME280;31720;52.638;9.216;2024-03-25T14:22:30;100232.53;;;13.59;67.99
32033;BME280;31720;52.638;9.216;2024-03-25T14:25:30;100237.75;;;13.83;62.24
32033;BME280;31720;52.638;9.216;2024-03-25T14:28:31;100233.47;;;13.21;64.37
32033;BME280;31720;52.638;9.216;2024-03-25T14:31:32;100233.97;;;13.02;64.35
32033;BME280;31720;52.638;9.216;2024-03-25T14:34:33;100229.16;;;12.83;64.42
32033;BME280;31720;52.638;9.216;2024-03-25T14:37:33;100232.47;;;12.61;64.38
32033;BME280;31720;52.638;9.216;2024-03-25T14:40:37;100235.31;;;12.07;64.91
32033;BME280;31720;52.638;9.216;2024-03-25T14:43:39;100233.47;;;12.22;64.72
32033;BME280;31720;52.638;9.216;2024-03-25T14:46:41;100225.56;;;12.84;63.31
32033;BME280;31720;52.638;9.216;2024-03-25T14:49:41;100229.63;;;12.77;64.87
32033;BME280;31720;52.638;9.216;2024-03-25T14:52:42;100228.28;;;12.33;65.53
32033;BME280;31720;52.638;9.216;2024-03-25T14:55:43;100225.53;;;11.69;67.12
32033;BME280;31720;52.638;9.216;2024-03-25T14:58:43;100227.22;;;12.10;70.35
32033;BME280;31720;52.638;9.216;2024-03-25T15:01:45;100216.03;;;12.07;71.82
32033;BME280;31720;52.638;9.216;2024-03-25T15:04:45;100207.31;;;12.32;67.99
32033;BME280;31720;52.638;9.216;2024-03-25T15:07:46;100208.03;;;12.34;66.58
32033;BME280;31720;52.638;9.216;2024-03-25T15:10:46;100213.22;;;12.23;68.28
32033;BME280;31720;52.638;9.216;2024-03-25T15:13:47;100207.50;;;12.16;68.09
32033;BME280;31720;52.638;9.216;2024-03-25T15:16:49;100208.06;;;12.08;68.55
32033;BME280;31720;52.638;9.216;2024-03-25T15:19:49;100203.50;;;12.49;69.00
32033;BME280;31720;52.638;9.216;2024-03-25T15:22:50;100200.28;;;12.82;64.42
32033;BME280;31720;52.638;9.216;2024-03-25T15:25:50;100186.63;;;12.64;69.83
32033;BME280;31720;52.638;9.216;2024-03-25T15:28:51;100192.53;;;12.55;67.64
32033;BME280;31720;52.638;9.216;2024-03-25T15:31:53;100189.59;;;12.21;64.12
32033;BME280;31720;52.638;9.216;2024-03-25T15:34:54;100195.84;;;11.95;66.36
32033;BME280;31720;52.638;9.216;2024-03-25T15:37:54;100193.59;;;11.49;67.68
32033;BME280;31720;52.638;9.216;2024-03-25T15:40:55;100196.19;;;11.09;68.67
32033;BME280;31720;52.638;9.216;2024-03-25T15:43:55;100190.41;;;10.89;70.58
32033;BME280;31720;52.638;9.216;2024-03-25T15:46:57;100188.88;;;10.73;72.49